createdAt,value
2022-10-26T00:00:34.481Z,46.83
2022-10-26T00:05:41.750Z,46.92
2022-10-26T00:10:48.906Z,47.07
2022-10-26T00:15:56.215Z,47.12
2022-10-26T00:21:03.436Z,47.23
2022-10-26T00:26:11.079Z,47.33
2022-10-26T00:31:18.306Z,47.04
2022-10-26T00:36:25.543Z,47.58
2022-10-26T00:41:32.734Z,47.65
2022-10-26T00:46:39.922Z,47.73
2022-10-26T00:51:47.157Z,47.80
2022-10-26T00:56:54.339Z,47.90
2022-10-26T01:02:01.536Z,47.96
2022-10-26T01:07:08.848Z,48.01
2022-10-26T01:12:15.947Z,47.71
2022-10-26T01:17:23.163Z,47.98
2022-10-26T01:22:30.392Z,48.13
2022-10-26T01:27:37.580Z,48.06
2022-10-26T01:32:44.759Z,48.03
2022-10-26T01:37:52.189Z,48.11
2022-10-26T01:42:59.171Z,48.26
2022-10-26T01:48:06.421Z,48.37
2022-10-26T01:53:13.918Z,48.47
2022-10-26T01:58:21.063Z,48.52
2022-10-26T02:03:28.444Z,48.61
2022-10-26T02:08:35.562Z,48.21
2022-10-26T02:13:42.742Z,48.29
2022-10-26T02:18:49.916Z,48.38
2022-10-26T02:23:57.196Z,48.32
2022-10-26T02:29:04.322Z,48.50
2022-10-26T02:34:11.485Z,48.52
2022-10-26T02:39:18.661Z,48.43
2022-10-26T02:44:26.905Z,48.29
2022-10-26T02:49:34.117Z,48.34
2022-10-26T02:54:41.302Z,48.59
2022-10-26T02:59:48.482Z,48.76
2022-10-26T03:04:55.679Z,48.52
2022-10-26T03:10:02.908Z,48.81
2022-10-26T03:15:10.068Z,48.83
2022-10-26T03:20:17.284Z,48.83
2022-10-26T03:25:24.533Z,48.78
2022-10-26T03:30:31.661Z,48.75
2022-10-26T03:35:38.936Z,48.58
2022-10-26T03:40:46.141Z,48.68
2022-10-26T03:45:53.331Z,48.68
2022-10-26T03:51:00.507Z,48.68
2022-10-26T03:56:07.752Z,48.73
2022-10-26T04:01:14.972Z,48.80
2022-10-26T04:06:22.215Z,48.84
2022-10-26T04:11:29.462Z,48.92
2022-10-26T04:16:36.654Z,48.94
2022-10-26T04:21:43.852Z,49.14
2022-10-26T04:26:51.141Z,49.10
2022-10-26T04:31:58.293Z,49.22
2022-10-26T04:37:05.446Z,49.49
2022-10-26T04:42:12.724Z,49.64
2022-10-26T04:47:19.856Z,49.66
2022-10-26T04:52:27.178Z,49.72
2022-10-26T04:57:34.436Z,49.80
2022-10-26T05:02:42.361Z,49.81
2022-10-26T05:07:49.798Z,49.80
2022-10-26T05:12:56.959Z,49.95
2022-10-26T05:18:04.170Z,49.71
2022-10-26T05:23:11.427Z,49.73
2022-10-26T05:28:18.651Z,49.15
2022-10-26T05:33:25.818Z,49.55
2022-10-26T05:38:33.072Z,49.60
2022-10-26T05:43:40.284Z,49.28
2022-10-26T05:48:47.462Z,49.45
2022-10-26T05:53:54.674Z,49.53
2022-10-26T05:59:01.835Z,49.51
2022-10-26T06:04:08.993Z,49.39
2022-10-26T06:09:16.175Z,49.36
2022-10-26T06:14:24.135Z,49.32
2022-10-26T06:19:31.335Z,49.39
2022-10-26T06:24:38.504Z,49.45
2022-10-26T06:29:46.246Z,49.47
2022-10-26T06:34:53.438Z,49.42
2022-10-26T06:40:00.629Z,49.43
2022-10-26T06:45:09.035Z,49.50
2022-10-26T06:50:17.407Z,49.91
2022-10-26T06:55:24.603Z,49.74
2022-10-26T07:05:39.017Z,49.64
2022-10-26T07:10:47.044Z,50.08
2022-10-26T07:15:54.279Z,49.93
2022-10-26T07:21:01.459Z,49.87
2022-10-26T07:26:08.726Z,49.84
2022-10-26T07:31:15.993Z,49.67
2022-10-26T07:36:23.177Z,49.56
2022-10-26T07:41:30.396Z,49.38
2022-10-26T07:46:37.603Z,49.45
2022-10-26T07:51:44.777Z,50.13
2022-10-26T07:56:52.071Z,50.10
2022-10-26T08:01:59.379Z,50.00
2022-10-26T08:07:06.460Z,50.09
2022-10-26T08:12:13.723Z,50.28
2022-10-26T08:17:21.045Z,50.07
2022-10-26T08:22:28.253Z,50.04
2022-10-26T08:27:35.520Z,49.97
2022-10-26T08:32:42.775Z,49.87
2022-10-26T08:37:49.933Z,49.83
2022-10-26T08:42:57.128Z,49.70
2022-10-26T08:48:04.362Z,49.63
2022-10-26T08:53:11.588Z,49.55
2022-10-26T08:58:18.787Z,49.57
2022-10-26T09:03:26.044Z,49.51
2022-10-26T09:08:33.283Z,49.54
2022-10-26T09:13:40.505Z,49.38
2022-10-26T09:23:54.851Z,48.98
2022-10-26T09:29:02.092Z,48.90
2022-10-26T09:34:09.298Z,48.84
2022-10-26T09:39:16.800Z,48.72
2022-10-26T09:44:24.001Z,48.66
2022-10-26T09:49:31.224Z,48.58
2022-10-26T09:54:38.439Z,48.73
2022-10-26T09:59:45.645Z,48.59
2022-10-26T10:04:52.946Z,48.81
2022-10-26T10:10:00.146Z,48.79
2022-10-26T10:15:07.332Z,48.87
2022-10-26T10:20:14.565Z,48.84
2022-10-26T10:25:21.811Z,48.94
2022-10-26T10:30:28.954Z,49.00
2022-10-26T10:35:36.154Z,49.00
2022-10-26T10:40:43.653Z,49.07
2022-10-26T10:45:52.007Z,49.30
2022-10-26T10:50:58.128Z,50.32
2022-10-26T10:56:07.685Z,50.72
2022-10-26T11:01:12.585Z,50.69
2022-10-26T11:06:19.705Z,50.67
2022-10-26T11:11:26.838Z,50.42
2022-10-26T11:16:34.090Z,50.25
2022-10-26T11:21:41.320Z,50.13
2022-10-26T11:26:48.515Z,49.95
2022-10-26T11:31:55.698Z,49.72
2022-10-26T11:37:02.933Z,49.87
2022-10-26T11:42:10.163Z,49.76
2022-10-26T11:47:17.326Z,49.64
2022-10-26T11:52:24.743Z,49.53
2022-10-26T11:57:32.906Z,49.45
2022-10-26T12:02:40.171Z,49.42
2022-10-26T12:07:47.635Z,49.37
2022-10-26T12:12:55.247Z,49.37
2022-10-26T12:18:02.482Z,49.39
2022-10-26T12:23:09.750Z,49.39
2022-10-26T12:28:16.902Z,49.39
2022-10-26T12:33:24.142Z,49.38
2022-10-26T12:38:33.829Z,49.34
2022-10-26T12:43:38.698Z,49.48
2022-10-26T12:48:45.846Z,50.21
2022-10-26T12:53:53.087Z,50.41
2022-10-26T12:59:04.520Z,50.55
2022-10-26T13:04:07.476Z,50.59
2022-10-26T13:09:17.622Z,50.58
2022-10-26T13:14:21.888Z,50.51
2022-10-26T13:19:29.022Z,50.55
2022-10-26T13:29:43.483Z,50.50
2022-10-26T13:34:50.772Z,50.58
2022-10-26T13:39:58.001Z,50.74
2022-10-26T13:45:06.407Z,50.58
2022-10-26T13:50:13.641Z,50.45
2022-10-26T13:55:20.852Z,50.56
2022-10-26T14:00:28.023Z,50.56
2022-10-26T14:05:35.262Z,50.72
2022-10-26T14:10:42.541Z,50.84
2022-10-26T14:15:49.725Z,50.93
2022-10-26T14:20:56.984Z,50.94
2022-10-26T14:26:04.187Z,50.86
2022-10-26T14:31:12.992Z,51.00
2022-10-26T14:36:18.561Z,51.19
2022-10-26T14:41:25.863Z,51.06
2022-10-26T14:46:32.882Z,51.14
2022-10-26T14:51:40.119Z,51.09
2022-10-26T14:56:47.381Z,51.08
2022-10-26T15:01:56.331Z,51.08
2022-10-26T15:07:04.348Z,51.15
2022-10-26T15:12:13.444Z,51.16
2022-10-26T15:17:20.659Z,51.25
2022-10-26T15:22:31.765Z,51.14
2022-10-26T15:27:35.239Z,51.19
2022-10-26T15:32:42.419Z,51.26
2022-10-26T15:37:50.854Z,51.31
2022-10-26T15:42:58.258Z,51.40
2022-10-26T15:48:05.666Z,51.38
2022-10-26T15:53:13.001Z,51.44
2022-10-26T15:58:20.216Z,51.69
2022-10-26T16:03:27.451Z,51.48
2022-10-26T16:08:34.637Z,51.58
2022-10-26T16:13:41.871Z,51.45
2022-10-26T16:18:51.069Z,51.62
2022-10-26T16:23:56.703Z,51.50
2022-10-26T16:29:04.001Z,51.66
2022-10-26T16:34:11.201Z,51.69
2022-10-26T16:39:18.738Z,51.45
2022-10-26T16:44:26.140Z,51.41
2022-10-26T16:49:33.661Z,51.46
2022-10-26T16:54:41.275Z,51.48
2022-10-26T16:59:48.649Z,51.56
2022-10-26T17:04:58.064Z,51.42
2022-10-26T17:10:04.935Z,51.45
2022-10-26T17:15:15.904Z,51.58
2022-10-26T17:20:21.294Z,51.40
2022-10-26T17:25:28.932Z,51.42
2022-10-26T17:30:36.547Z,51.26
2022-10-26T17:35:44.239Z,51.09
2022-10-26T17:40:51.852Z,50.90
2022-10-26T17:45:59.603Z,51.14
2022-10-26T17:51:06.877Z,50.67
2022-10-26T17:56:14.389Z,50.99
2022-10-26T18:01:22.108Z,50.98
2022-10-26T18:06:29.719Z,50.87
2022-10-26T18:11:37.139Z,50.90
2022-10-26T18:16:45.729Z,50.96
2022-10-26T18:21:53.281Z,50.98
2022-10-26T18:27:00.996Z,50.92
2022-10-26T18:32:08.356Z,50.96
2022-10-26T18:37:15.566Z,51.03
2022-10-26T18:42:23.124Z,51.02
2022-10-26T18:47:30.864Z,51.09
2022-10-26T18:52:38.346Z,51.03
2022-10-26T18:57:45.963Z,50.96
2022-10-26T19:02:54.058Z,50.74
2022-10-26T19:08:01.302Z,50.74
2022-10-26T19:13:08.927Z,50.68
2022-10-26T19:18:16.363Z,50.55
2022-10-26T19:23:23.834Z,50.37
2022-10-26T19:28:31.556Z,50.33
2022-10-26T19:33:39.806Z,50.29
2022-10-26T19:38:47.289Z,50.31
2022-10-26T19:43:55.090Z,50.16
2022-10-26T19:49:02.660Z,50.10
2022-10-26T19:54:11.262Z,50.03
2022-10-26T19:59:18.886Z,49.98
2022-10-26T20:04:26.278Z,49.70
2022-10-26T20:09:33.694Z,49.87
2022-10-26T20:14:41.317Z,49.81
2022-10-26T20:19:48.944Z,49.87
2022-10-26T20:24:57.146Z,49.67
2022-10-26T20:30:04.250Z,49.95
2022-10-26T20:35:11.795Z,49.34
2022-10-26T20:40:19.386Z,49.26
2022-10-26T20:45:26.781Z,49.23
2022-10-26T20:50:34.222Z,48.99
2022-10-26T20:55:41.527Z,48.91
2022-10-26T21:00:48.861Z,48.73
2022-10-26T21:05:56.006Z,48.74
2022-10-26T21:11:03.234Z,48.51
2022-10-26T21:16:13.907Z,48.37
2022-10-26T21:21:21.107Z,48.49
2022-10-26T21:26:28.256Z,48.42
2022-10-26T21:31:40.549Z,48.52
2022-10-26T21:36:47.813Z,48.46
2022-10-26T21:41:55.038Z,48.20
2022-10-26T21:47:02.263Z,47.98
2022-10-26T21:52:09.484Z,47.78
2022-10-26T21:57:16.724Z,47.71
2022-10-26T22:02:24.101Z,47.44
2022-10-26T22:07:31.219Z,47.36
2022-10-26T22:12:38.464Z,47.07
2022-10-26T22:17:45.713Z,46.81
2022-10-26T22:22:53.001Z,46.73
2022-10-26T22:28:00.137Z,46.52
2022-10-26T22:33:07.358Z,46.50
2022-10-26T22:38:14.537Z,46.36
2022-10-26T22:43:21.778Z,46.18
2022-10-26T22:48:28.942Z,46.20
2022-10-26T22:53:36.155Z,46.21
2022-10-26T22:58:47.036Z,46.29
2022-10-26T23:03:54.221Z,46.78
2022-10-26T23:09:01.401Z,46.87
2022-10-26T23:14:08.552Z,46.97
2022-10-26T23:19:16.433Z,47.07
2022-10-26T23:24:23.683Z,47.17
2022-10-26T23:29:30.964Z,47.30
2022-10-26T23:34:39.357Z,47.43
2022-10-26T23:39:46.615Z,47.65
2022-10-26T23:44:53.827Z,47.80
2022-10-26T23:50:00.996Z,47.93
2022-10-26T23:55:08.209Z,48.10
